First Ferry Viii — VRS4306 — position and weather

sailwx.info

Track history (hours):
 
Tides and Currents Weather Stations Pressure Air Temp Water Temp Dewpoint Dewpoint Depression Visibility Wind Speed Wind Dir Waves Ship Positions

First Ferry Viii

Last reported at 2015-Mar-27 16:04 UTC. Time now 2015-Mar-27 19:11 UTC.
Position N 22°16' E 114°04'.

Length 36 m; draft 1.8 m.

Type: High speed craft. MMSI: 477995030.

Date/timePositionNaut miles runAvg speedWind from/ knotsBaromVisibWave heightAir tempDewpointWater temp
2015-Mar-27 16:04N 22°16' E 114°04'510.5
2015-Mar-27 15:33N 22°17' E 114°10'5 4.0
2015-Mar-27 14:19N 22°16' E 114°05'5 6.5
2015-Mar-27 13:33N 22°17' E 114°10'7 5.6
2015-Mar-27 12:24N 22°15' E 114°03'6 7.0
2015-Mar-27 11:33N 22°18' E 114°09'2 1.6
2015-Mar-27 10:33N 22°17' E 114°07'2 1.3
2015-Mar-27 08:33N 22°17' E 114°10'0 0.0
2015-Mar-27 06:33N 22°17' E 114°10'3 2.6
2015-Mar-27 05:33N 22°19' E 114°12'0 0.0
2015-Mar-27 04:33N 22°19' E 114°12'0 0.0
2015-Mar-27 03:33N 22°19' E 114°12'3 2.1
2015-Mar-27 02:21N 22°19' E 114°09'2 1.0
2015-Mar-27 00:34N 22°17' E 114°10'5 4.6
2015-Mar-26 23:28N 22°17' E 114°04'2 0.3
2015-Mar-26 16:06N 22°15' E 114°03'611.4
2015-Mar-26 15:34N 22°17' E 114°10'5 4.4
2015-Mar-26 14:20N 22°16' E 114°04'5 6.8
2015-Mar-26 13:33N 22°17' E 114°10'7 5.7
2015-Mar-26 12:24N 22°15' E 114°03'7 7.8
2015-Mar-26 11:34N 22°17' E 114°10'3 2.7
2015-Mar-26 10:32N 22°17' E 114°07'3 1.4
2015-Mar-26 08:33N 22°17' E 114°10'0 0.0
2015-Mar-26 06:34N 22°17' E 114°10'3 2.6
2015-Mar-26 05:34N 22°19' E 114°12'0 0.0
2015-Mar-26 04:33N 22°19' E 114°12'0 0.0
2015-Mar-26 03:34N 22°19' E 114°12'0 0.0
2015-Mar-26 02:34N 22°19' E 114°12'3 1.4
2015-Mar-26 00:34N 22°17' E 114°09'7 6.8
2015-Mar-25 23:32N 22°16' E 114°02'2 0.3
2015-Mar-25 16:04N 22°16' E 114°04'510.1
2015-Mar-25 15:34N 22°17' E 114°10'7 5.6
2015-Mar-25 14:23N 22°15' E 114°03'7 8.0
2015-Mar-25 13:33N 22°17' E 114°10'5 4.4
2015-Mar-25 12:20N 22°16' E 114°04'5 6.5
2015-Mar-25 11:33N 22°17' E 114°09'2 2.2
2015-Mar-25 10:33N 22°17' E 114°07'5 4.7
2015-Mar-25 09:33N 22°19' E 114°12'0 0.0
2015-Mar-25 08:33N 22°19' E 114°12'0 0.0
2015-Mar-25 07:33N 22°19' E 114°12'2 2.4
2015-Mar-25 06:33N 22°19' E 114°09'1 0.7
2015-Mar-25 04:33N 22°17' E 114°10'0 0.0
2015-Mar-25 02:33N 22°17' E 114°10'0 0.0
2015-Mar-25 00:34N 22°17' E 114°10'7 7.2
2015-Mar-24 23:32N 22°16' E 114°02'7 0.9
2015-Mar-24 15:33N 22°17' E 114°10'5 4.5
2015-Mar-24 14:20N 22°16' E 114°04'5 7.0
2015-Mar-24 13:34N 22°17' E 114°10'5 3.7
2015-Mar-24 12:18N 22°16' E 114°05'4 5.8
2015-Mar-24 11:33N 22°17' E 114°09'2 2.3
2015-Mar-24 10:33N 22°17' E 114°07'3 1.3
2015-Mar-24 08:33N 22°17' E 114°10'0 0.0
2015-Mar-24 06:33N 22°17' E 114°10'3 2.6
2015-Mar-24 05:33N 22°19' E 114°12'0 0.0
2015-Mar-24 04:33N 22°19' E 114°12'0 0.0
2015-Mar-24 03:33N 22°19' E 114°12'0 0.0
2015-Mar-24 02:33N 22°19' E 114°12'3 1.3
2015-Mar-24 00:33N 22°17' E 114°09'7 6.7
2015-Mar-23 23:32N 22°16' E 114°02'2 0.2
2015-Mar-23 16:05N 22°15' E 114°04'611.0
2015-Mar-23 15:34N 22°17' E 114°10'5 4.3
2015-Mar-23 14:21N 22°16' E 114°04'5 6.5
2015-Mar-23 13:34N 22°17' E 114°10'5 4.2
2015-Mar-23 12:20N 22°16' E 114°04'4 5.4
2015-Mar-23 11:34N 22°17' E 114°08'1 0.8
2015-Mar-23 10:33N 22°17' E 114°07'3 2.3
2015-Mar-23 09:05N 22°16' E 114°04'5 9.7
2015-Mar-23 08:33N 22°17' E 114°10'5 3.6
2015-Mar-23 07:05N 22°15' E 114°04'510.3
2015-Mar-23 06:33N 22°17' E 114°10'3 2.6
2015-Mar-23 05:33N 22°19' E 114°12'0 0.0
2015-Mar-23 04:33N 22°19' E 114°12'0 0.0
2015-Mar-23 03:33N 22°19' E 114°12'3 2.8
2015-Mar-23 02:33N 22°20' E 114°09'2 1.1
2015-Mar-23 00:34N 22°18' E 114°09'7 6.6
2015-Mar-22 23:32N 22°16' E 114°02'2 0.2
2015-Mar-22 16:14N 22°15' E 114°04'6 8.3
2015-Mar-22 15:34N 22°17' E 114°10'2 2.3
2015-Mar-22 14:34N 22°18' E 114°12'2 2.1
2015-Mar-22 13:33N 22°17' E 114°10'6 4.6
2015-Mar-22 12:20N 22°16' E 114°04'6 7.2
2015-Mar-22 11:33N 22°17' E 114°10'4 3.2
2015-Mar-22 10:16N 22°17' E 114°05'5 6.4
2015-Mar-22 09:33N 22°17' E 114°10'6 4.9
2015-Mar-22 08:20N 22°15' E 114°04'6 7.1
2015-Mar-22 07:34N 22°17' E 114°10'5 3.8
2015-Mar-22 06:09N 22°15' E 114°04'5 8.9
2015-Mar-22 05:34N 22°17' E 114°10'6 3.9
2015-Mar-22 04:08N 22°15' E 114°04'6 9.9
2015-Mar-22 03:33N 22°17' E 114°10'5 4.0
2015-Mar-22 02:14N 22°16' E 114°04'5 7.9
2015-Mar-22 01:33N 22°17' E 114°10'6 4.9
2015-Mar-22 00:21N 22°15' E 114°04'6 7.6
2015-Mar-21 23:33N 22°18' E 114°09'1 0.9
2015-Mar-21 22:34N 22°17' E 114°09'5 0.8
2015-Mar-21 16:04N 22°15' E 114°04'510.6
2015-Mar-21 15:34N 22°17' E 114°10'7 5.8
2015-Mar-21 14:25N 22°15' E 114°03'7 8.6
2015-Mar-21 13:33N 22°17' E 114°10'2 1.9
2015-Mar-21 12:33N 22°19' E 114°12'3 3.2
2015-Mar-21 11:34N 22°18' E 114°09'2 2.0
2015-Mar-21 10:33N 22°17' E 114°06'3 1.4
2015-Mar-21 08:33N 22°17' E 114°10'0 0.0
2015-Mar-21 06:33N 22°17' E 114°10'0 0.0
2015-Mar-21 04:31N 22°17' E 114°10'5 3.7
2015-Mar-21 03:06N 22°16' E 114°04'5 9.6
2015-Mar-21 02:33N 22°17' E 114°10'2 2.5
2015-Mar-21 01:33N 22°20' E 114°09'4 3.7
2015-Mar-21 00:32N 22°17' E 114°06'1 1.2
2015-Mar-20 23:29N 22°17' E 114°04'5 0.6
2015-Mar-20 15:33N 22°17' E 114°10'5 4.2
2015-Mar-20 14:20N 22°16' E 114°04'5 6.7
2015-Mar-20 13:33N 22°17' E 114°10'5 4.1
2015-Mar-20 12:19N 22°16' E 114°04'5 6.1
2015-Mar-20 11:33N 22°17' E 114°09'2 1.7
2015-Mar-20 10:33N 22°18' E 114°07'2 1.1
2015-Mar-20 08:33N 22°17' E 114°10'3 2.6
2015-Mar-20 07:33N 22°19' E 114°12'0 0.0
2015-Mar-20 06:33N 22°19' E 114°12'0 0.0
2015-Mar-20 05:33N 22°19' E 114°12'1 1.2
2015-Mar-20 04:33N 22°18' E 114°11'2 0.8
2015-Mar-20 02:27N 22°17' E 114°10'0 0.1
2015-Mar-20 00:33N 22°17' E 114°09'5 4.9
2015-Mar-19 23:29N 22°17' E 114°04'5 0.7
2015-Mar-19 15:34N 22°17' E 114°10'4 3.2
2015-Mar-19 14:16N 22°16' E 114°05'4 5.7
2015-Mar-19 13:33N 22°17' E 114°10'3 2.2
2015-Mar-19 12:13N 22°17' E 114°06'2 3.4
2015-Mar-19 11:33N 22°18' E 114°09'2 1.5
2015-Mar-19 10:33N 22°17' E 114°07'2 1.1
2015-Mar-19 08:33N 22°17' E 114°10'0 0.0
2015-Mar-19 06:32N 22°17' E 114°10'3 2.6
2015-Mar-19 05:33N 22°19' E 114°12'0 0.0
2015-Mar-19 04:33N 22°19' E 114°12'3 2.8
2015-Mar-19 03:30N 22°20' E 114°09'0 0.1
2015-Mar-19 00:30N 22°20' E 114°09'0 0.0
2015-Mar-18 23:32N 22°20' E 114°09'6 0.8
2015-Mar-18 16:04N 22°16' E 114°04'510.5
2015-Mar-18 15:34N 22°17' E 114°10'6 4.6
2015-Mar-18 14:22N 22°15' E 114°04'6 6.8
2015-Mar-18 13:33N 22°17' E 114°10'5 3.7
2015-Mar-18 12:18N 22°16' E 114°05'3 4.6
2015-Mar-18 11:34N 22°18' E 114°08'1 1.1
2015-Mar-18 10:33N 22°18' E 114°07'2 1.2
2015-Mar-18 08:32N 22°17' E 114°10'0 0.0
2015-Mar-18 06:29N 22°17' E 114°10'3 2.8
2015-Mar-18 05:34N 22°19' E 114°12'0 0.0
2015-Mar-18 04:33N 22°19' E 114°12'0 0.0
2015-Mar-18 03:33N 22°19' E 114°12'0 0.0
2015-Mar-18 02:33N 22°19' E 114°12'3 1.3
2015-Mar-18 00:34N 22°17' E 114°09'7 6.3
2015-Mar-17 23:32N 22°16' E 114°03'  
Track history (hours):
 
Tides and Currents Weather Stations Pressure Air Temp Water Temp Dewpoint Dewpoint Depression Visibility Wind Speed Wind Dir Waves Ship Positions

First Ferry Viii

Last reported at 2015-Mar-27 16:04 UTC. Time now 2015-Mar-27 19:11 UTC.
Position N 22°16' E 114°04'.

Length 36 m; draft 1.8 m.

Type: High speed craft. MMSI: 477995030.

Date/timePositionNaut miles runAvg speedWind from/ knotsBaromVisibWave heightAir tempDewpointWater temp
2015-Mar-27 16:04N 22°16' E 114°04'510.5
2015-Mar-27 15:33N 22°17' E 114°10'5 4.0
2015-Mar-27 14:19N 22°16' E 114°05'5 6.5
2015-Mar-27 13:33N 22°17' E 114°10'7 5.6
2015-Mar-27 12:24N 22°15' E 114°03'6 7.0
2015-Mar-27 11:33N 22°18' E 114°09'2 1.6
2015-Mar-27 10:33N 22°17' E 114°07'2 1.3
2015-Mar-27 08:33N 22°17' E 114°10'0 0.0
2015-Mar-27 06:33N 22°17' E 114°10'3 2.6
2015-Mar-27 05:33N 22°19' E 114°12'0 0.0
2015-Mar-27 04:33N 22°19' E 114°12'0 0.0
2015-Mar-27 03:33N 22°19' E 114°12'3 2.1
2015-Mar-27 02:21N 22°19' E 114°09'2 1.0
2015-Mar-27 00:34N 22°17' E 114°10'5 4.6
2015-Mar-26 23:28N 22°17' E 114°04'2 0.3
2015-Mar-26 16:06N 22°15' E 114°03'611.4
2015-Mar-26 15:34N 22°17' E 114°10'5 4.4
2015-Mar-26 14:20N 22°16' E 114°04'5 6.8
2015-Mar-26 13:33N 22°17' E 114°10'7 5.7
2015-Mar-26 12:24N 22°15' E 114°03'7 7.8
2015-Mar-26 11:34N 22°17' E 114°10'3 2.7
2015-Mar-26 10:32N 22°17' E 114°07'3 1.4
2015-Mar-26 08:33N 22°17' E 114°10'0 0.0
2015-Mar-26 06:34N 22°17' E 114°10'3 2.6
2015-Mar-26 05:34N 22°19' E 114°12'0 0.0
2015-Mar-26 04:33N 22°19' E 114°12'0 0.0
2015-Mar-26 03:34N 22°19' E 114°12'0 0.0
2015-Mar-26 02:34N 22°19' E 114°12'3 1.4
2015-Mar-26 00:34N 22°17' E 114°09'7 6.8
2015-Mar-25 23:32N 22°16' E 114°02'2 0.3
2015-Mar-25 16:04N 22°16' E 114°04'510.1
2015-Mar-25 15:34N 22°17' E 114°10'7 5.6
2015-Mar-25 14:23N 22°15' E 114°03'7 8.0
2015-Mar-25 13:33N 22°17' E 114°10'5 4.4
2015-Mar-25 12:20N 22°16' E 114°04'5 6.5
2015-Mar-25 11:33N 22°17' E 114°09'2 2.2
2015-Mar-25 10:33N 22°17' E 114°07'5 4.7
2015-Mar-25 09:33N 22°19' E 114°12'0 0.0
2015-Mar-25 08:33N 22°19' E 114°12'0 0.0
2015-Mar-25 07:33N 22°19' E 114°12'2 2.4
2015-Mar-25 06:33N 22°19' E 114°09'1 0.7
2015-Mar-25 04:33N 22°17' E 114°10'0 0.0
2015-Mar-25 02:33N 22°17' E 114°10'0 0.0
2015-Mar-25 00:34N 22°17' E 114°10'7 7.2
2015-Mar-24 23:32N 22°16' E 114°02'7 0.9
2015-Mar-24 15:33N 22°17' E 114°10'5 4.5
2015-Mar-24 14:20N 22°16' E 114°04'5 7.0
2015-Mar-24 13:34N 22°17' E 114°10'5 3.7
2015-Mar-24 12:18N 22°16' E 114°05'4 5.8
2015-Mar-24 11:33N 22°17' E 114°09'2 2.3
2015-Mar-24 10:33N 22°17' E 114°07'3 1.3
2015-Mar-24 08:33N 22°17' E 114°10'0 0.0
2015-Mar-24 06:33N 22°17' E 114°10'3 2.6
2015-Mar-24 05:33N 22°19' E 114°12'0 0.0
2015-Mar-24 04:33N 22°19' E 114°12'0 0.0
2015-Mar-24 03:33N 22°19' E 114°12'0 0.0
2015-Mar-24 02:33N 22°19' E 114°12'3 1.3
2015-Mar-24 00:33N 22°17' E 114°09'7 6.7
2015-Mar-23 23:32N 22°16' E 114°02'2 0.2
2015-Mar-23 16:05N 22°15' E 114°04'611.0
2015-Mar-23 15:34N 22°17' E 114°10'5 4.3
2015-Mar-23 14:21N 22°16' E 114°04'5 6.5
2015-Mar-23 13:34N 22°17' E 114°10'5 4.2
2015-Mar-23 12:20N 22°16' E 114°04'4 5.4
2015-Mar-23 11:34N 22°17' E 114°08'1 0.8
2015-Mar-23 10:33N 22°17' E 114°07'3 2.3
2015-Mar-23 09:05N 22°16' E 114°04'5 9.7
2015-Mar-23 08:33N 22°17' E 114°10'5 3.6
2015-Mar-23 07:05N 22°15' E 114°04'510.3
2015-Mar-23 06:33N 22°17' E 114°10'3 2.6
2015-Mar-23 05:33N 22°19' E 114°12'0 0.0
2015-Mar-23 04:33N 22°19' E 114°12'0 0.0
2015-Mar-23 03:33N 22°19' E 114°12'3 2.8
2015-Mar-23 02:33N 22°20' E 114°09'2 1.1
2015-Mar-23 00:34N 22°18' E 114°09'7 6.6
2015-Mar-22 23:32N 22°16' E 114°02'2 0.2
2015-Mar-22 16:14N 22°15' E 114°04'6 8.3
2015-Mar-22 15:34N 22°17' E 114°10'2 2.3
2015-Mar-22 14:34N 22°18' E 114°12'2 2.1
2015-Mar-22 13:33N 22°17' E 114°10'6 4.6
2015-Mar-22 12:20N 22°16' E 114°04'6 7.2
2015-Mar-22 11:33N 22°17' E 114°10'4 3.2
2015-Mar-22 10:16N 22°17' E 114°05'5 6.4
2015-Mar-22 09:33N 22°17' E 114°10'6 4.9
2015-Mar-22 08:20N 22°15' E 114°04'6 7.1
2015-Mar-22 07:34N 22°17' E 114°10'5 3.8
2015-Mar-22 06:09N 22°15' E 114°04'5 8.9
2015-Mar-22 05:34N 22°17' E 114°10'6 3.9
2015-Mar-22 04:08N 22°15' E 114°04'6 9.9
2015-Mar-22 03:33N 22°17' E 114°10'5 4.0
2015-Mar-22 02:14N 22°16' E 114°04'5 7.9
2015-Mar-22 01:33N 22°17' E 114°10'6 4.9
2015-Mar-22 00:21N 22°15' E 114°04'6 7.6
2015-Mar-21 23:33N 22°18' E 114°09'1 0.9
2015-Mar-21 22:34N 22°17' E 114°09'5 0.8
2015-Mar-21 16:04N 22°15' E 114°04'510.6
2015-Mar-21 15:34N 22°17' E 114°10'7 5.8
2015-Mar-21 14:25N 22°15' E 114°03'7 8.6
2015-Mar-21 13:33N 22°17' E 114°10'2 1.9
2015-Mar-21 12:33N 22°19' E 114°12'3 3.2
2015-Mar-21 11:34N 22°18' E 114°09'2 2.0
2015-Mar-21 10:33N 22°17' E 114°06'3 1.4
2015-Mar-21 08:33N 22°17' E 114°10'0 0.0
2015-Mar-21 06:33N 22°17' E 114°10'0 0.0
2015-Mar-21 04:31N 22°17' E 114°10'5 3.7
2015-Mar-21 03:06N 22°16' E 114°04'5 9.6
2015-Mar-21 02:33N 22°17' E 114°10'2 2.5
2015-Mar-21 01:33N 22°20' E 114°09'4 3.7
2015-Mar-21 00:32N 22°17' E 114°06'1 1.2
2015-Mar-20 23:29N 22°17' E 114°04'5 0.6
2015-Mar-20 15:33N 22°17' E 114°10'5 4.2
2015-Mar-20 14:20N 22°16' E 114°04'5 6.7
2015-Mar-20 13:33N 22°17' E 114°10'5 4.1
2015-Mar-20 12:19N 22°16' E 114°04'5 6.1
2015-Mar-20 11:33N 22°17' E 114°09'2 1.7
2015-Mar-20 10:33N 22°18' E 114°07'2 1.1
2015-Mar-20 08:33N 22°17' E 114°10'3 2.6
2015-Mar-20 07:33N 22°19' E 114°12'0 0.0
2015-Mar-20 06:33N 22°19' E 114°12'0 0.0
2015-Mar-20 05:33N 22°19' E 114°12'1 1.2
2015-Mar-20 04:33N 22°18' E 114°11'2 0.8
2015-Mar-20 02:27N 22°17' E 114°10'0 0.1
2015-Mar-20 00:33N 22°17' E 114°09'5 4.9
2015-Mar-19 23:29N 22°17' E 114°04'5 0.7
2015-Mar-19 15:34N 22°17' E 114°10'4 3.2
2015-Mar-19 14:16N 22°16' E 114°05'4 5.7
2015-Mar-19 13:33N 22°17' E 114°10'3 2.2
2015-Mar-19 12:13N 22°17' E 114°06'2 3.4
2015-Mar-19 11:33N 22°18' E 114°09'2 1.5
2015-Mar-19 10:33N 22°17' E 114°07'2 1.1
2015-Mar-19 08:33N 22°17' E 114°10'0 0.0
2015-Mar-19 06:32N 22°17' E 114°10'3 2.6
2015-Mar-19 05:33N 22°19' E 114°12'0 0.0
2015-Mar-19 04:33N 22°19' E 114°12'3 2.8
2015-Mar-19 03:30N 22°20' E 114°09'0 0.1
2015-Mar-19 00:30N 22°20' E 114°09'0 0.0
2015-Mar-18 23:32N 22°20' E 114°09'6 0.8
2015-Mar-18 16:04N 22°16' E 114°04'510.5
2015-Mar-18 15:34N 22°17' E 114°10'6 4.6
2015-Mar-18 14:22N 22°15' E 114°04'6 6.8
2015-Mar-18 13:33N 22°17' E 114°10'5 3.7
2015-Mar-18 12:18N 22°16' E 114°05'3 4.6
2015-Mar-18 11:34N 22°18' E 114°08'1 1.1
2015-Mar-18 10:33N 22°18' E 114°07'2 1.2
2015-Mar-18 08:32N 22°17' E 114°10'0 0.0
2015-Mar-18 06:29N 22°17' E 114°10'3 2.8
2015-Mar-18 05:34N 22°19' E 114°12'0 0.0
2015-Mar-18 04:33N 22°19' E 114°12'0 0.0
2015-Mar-18 03:33N 22°19' E 114°12'0 0.0
2015-Mar-18 02:33N 22°19' E 114°12'3 1.3
2015-Mar-18 00:34N 22°17' E 114°09'7 6.3
2015-Mar-17 23:32N 22°16' E 114°03'  

Dump ship's entire track history